Time;durP1;ratioP1;P1;durP2;ratioP2;P2;SDS_P1;SDS_P2;PMS_P1;PMS_P2;Temp;Humidity;BMP_temperature;BMP_pressure;BME280_temperature;BME280_humidity;BME280_pressure;Samples;Min_cycle;Max_cycle;Signal;HPM_P1;HPM_P2
2021/04/09 00:02:04;;;;;;;14.68;10.25;;;5.50;99.90;;;;;;5030339;28;20477;-84
2021/04/09 00:04:30;;;;;;;21.05;10.52;;;5.50;99.90;;;;;;5065749;28;20098;-83
2021/04/09 00:06:56;;;;;;;18.70;10.60;;;5.50;99.90;;;;;;5069716;28;20435;-84
2021/04/09 00:09:23;;;;;;;16.88;10.05;;;5.50;99.90;;;;;;5070086;28;21552;-83
2021/04/09 00:11:48;;;;;;;20.73;11.13;;;5.40;99.90;;;;;;5051936;28;20044;-83
2021/04/09 00:14:16;;;;;;;13.35;9.52;;;5.40;99.90;;;;;;5033020;28;20099;-83
2021/04/09 00:16:42;;;;;;;19.92;10.75;;;5.40;99.90;;;;;;5032443;28;20099;-85
2021/04/09 00:19:18;;;;;;;14.80;9.98;;;5.40;99.90;;;;;;5051964;28;20102;-84
2021/04/09 00:21:44;;;;;;;15.85;9.32;;;5.40;99.90;;;;;;5051968;28;20040;-86
2021/04/09 00:24:11;;;;;;;13.77;9.43;;;5.40;99.90;;;;;;5026769;28;20469;-83
2021/04/09 00:26:37;;;;;;;20.48;9.55;;;5.40;99.90;;;;;;5041924;28;20050;-83
2021/04/09 00:29:03;;;;;;;16.65;10.40;;;5.30;99.90;;;;;;5051147;28;20072;-83
2021/04/09 00:31:29;;;;;;;16.83;10.35;;;5.30;99.90;;;;;;5051928;28;20067;-83
2021/04/09 00:33:55;;;;;;;20.73;10.20;;;5.30;99.90;;;;;;5047357;28;20571;-84
2021/04/09 00:36:21;;;;;;;19.45;9.80;;;5.30;99.90;;;;;;5030001;28;20123;-83
2021/04/09 00:38:47;;;;;;;18.35;10.18;;;5.30;99.90;;;;;;5069502;28;20044;-84
2021/04/09 00:41:14;;;;;;;16.73;9.52;;;5.30;99.90;;;;;;5069950;28;20044;-84
2021/04/09 00:43:40;;;;;;;15.77;10.00;;;5.30;99.90;;;;;;5034013;28;20048;-85
2021/04/09 00:46:07;;;;;;;20.25;10.82;;;5.30;99.90;;;;;;5049976;28;20059;-84
2021/04/09 00:48:34;;;;;;;13.50;10.00;;;5.30;99.90;;;;;;5051469;28;20119;-84
2021/04/09 00:51:00;;;;;;;14.52;10.18;;;5.20;99.90;;;;;;5034508;28;20048;-84
2021/04/09 00:53:27;;;;;;;13.95;9.88;;;5.20;99.90;;;;;;5051791;28;20037;-82
2021/04/09 00:55:55;;;;;;;18.20;9.85;;;5.20;99.90;;;;;;5017188;28;20071;-83
2021/04/09 00:58:21;;;;;;;22.95;10.48;;;5.20;99.90;;;;;;5051794;28;20124;-83
2021/04/09 01:00:47;;;;;;;14.95;10.13;;;5.20;99.90;;;;;;5068473;28;20124;-86
2021/04/09 01:03:13;;;;;;;15.18;9.52;;;5.20;99.90;;;;;;5034874;28;20036;-83
2021/04/09 01:05:40;;;;;;;22.13;9.38;;;5.20;99.90;;;;;;5068982;28;20086;-83
2021/04/09 01:08:08;;;;;;;15.43;9.40;;;5.20;99.90;;;;;;5068723;28;20807;-83
2021/04/09 01:10:35;;;;;;;17.17;9.98;;;5.20;99.90;;;;;;5031978;28;20049;-82
2021/04/09 01:13:01;;;;;;;21.73;10.30;;;5.20;99.90;;;;;;5068333;28;20040;-82
2021/04/09 01:15:26;;;;;;;17.95;10.23;;;5.20;99.90;;;;;;5051617;28;20044;-83
2021/04/09 01:18:03;;;;;;;16.10;9.43;;;5.20;99.90;;;;;;5050723;28;20435;-82
2021/04/09 01:20:40;;;;;;;16.20;10.32;;;5.20;99.90;;;;;;5069560;28;20532;-82
2021/04/09 01:23:21;;;;;;;18.98;9.55;;;5.20;99.90;;;;;;5050001;28;20476;-83
2021/04/09 01:25:49;;;;;;;15.50;10.48;;;5.20;99.90;;;;;;5051262;28;20063;-84
2021/04/09 01:28:25;;;;;;;17.25;9.35;;;5.20;99.90;;;;;;5055265;28;20045;-85
2021/04/09 01:30:57;;;;;;;16.48;9.25;;;5.20;99.90;;;;;;5066443;28;20136;-84
2021/04/09 01:33:40;;;;;;;14.02;9.90;;;5.30;99.90;;;;;;5078159;28;20036;-82
2021/04/09 01:36:13;;;;;;;14.70;8.85;;;5.20;99.90;;;;;;5067970;28;20170;-83
2021/04/09 01:38:47;;;;;;;14.38;9.73;;;5.20;99.90;;;;;;5051286;28;20037;-83
2021/04/09 01:41:14;;;;;;;21.38;9.57;;;5.30;99.90;;;;;;5039151;28;20082;-83
2021/04/09 01:43:43;;;;;;;21.67;10.65;;;5.30;99.90;;;;;;5034479;28;20048;-83
2021/04/09 01:46:13;;;;;;;16.42;9.35;;;5.30;99.90;;;;;;5066755;28;20551;-83
2021/04/09 01:48:41;;;;;;;17.90;9.37;;;5.30;99.90;;;;;;5068889;28;20545;-83
2021/04/09 01:51:14;;;;;;;16.15;9.93;;;5.30;99.90;;;;;;5058271;28;20484;-84
2021/04/09 01:53:44;;;;;;;15.65;9.57;;;5.40;99.90;;;;;;5050675;28;20052;-82
2021/04/09 01:56:12;;;;;;;15.65;9.65;;;5.30;99.90;;;;;;5050196;28;20639;-82
2021/04/09 01:58:40;;;;;;;19.58;10.48;;;5.30;99.90;;;;;;5050928;28;20040;-82
2021/04/09 02:01:12;;;;;;;13.30;9.07;;;5.30;99.90;;;;;;5032972;28;20492;-82
2021/04/09 02:03:40;;;;;;;16.60;9.00;;;5.30;99.90;;;;;;5051064;28;20055;-82
2021/04/09 02:06:07;;;;;;;16.17;9.82;;;5.30;99.90;;;;;;5030257;28;20052;-82
2021/04/09 02:08:35;;;;;;;18.20;9.30;;;5.40;99.90;;;;;;5047265;28;20047;-82
2021/04/09 02:11:01;;;;;;;20.92;10.63;;;5.40;99.90;;;;;;5049134;28;20042;-82
2021/04/09 02:13:28;;;;;;;20.52;9.98;;;5.30;99.90;;;;;;5046645;28;20044;-83
2021/04/09 02:15:58;;;;;;;17.35;9.52;;;5.30;99.90;;;;;;5067630;28;20493;-83
2021/04/09 02:18:24;;;;;;;23.67;9.82;;;5.30;99.90;;;;;;5050789;28;20124;-82
2021/04/09 02:20:51;;;;;;;17.27;9.40;;;5.30;99.90;;;;;;5050793;28;20040;-83
2021/04/09 02:23:17;;;;;;;18.27;9.80;;;5.30;99.90;;;;;;5050048;28;20040;-83
2021/04/09 02:25:43;;;;;;;21.23;9.50;;;5.30;99.90;;;;;;5050767;28;20381;-82
2021/04/09 02:28:09;;;;;;;22.70;9.98;;;5.30;99.90;;;;;;5022811;28;20040;-83
2021/04/09 02:30:35;;;;;;;16.55;9.43;;;5.30;99.90;;;;;;5050758;28;20044;-82
2021/04/09 02:33:01;;;;;;;15.40;9.27;;;5.30;99.90;;;;;;5067395;28;20395;-82
2021/04/09 02:35:26;;;;;;;19.15;10.13;;;5.30;99.90;;;;;;5068482;28;20040;-82
2021/04/09 02:37:53;;;;;;;20.60;10.25;;;5.30;99.90;;;;;;5033597;28;20052;-83
2021/04/09 02:40:27;;;;;;;14.82;9.85;;;5.30;99.90;;;;;;5060360;28;20150;-83
2021/04/09 02:42:54;;;;;;;17.15;9.60;;;5.30;99.90;;;;;;5050535;28;20405;-85
2021/04/09 02:45:23;;;;;;;21.08;9.98;;;5.30;99.90;;;;;;5067833;28;20071;-83
2021/04/09 02:47:51;;;;;;;19.25;10.45;;;5.30;99.90;;;;;;5063759;28;20484;-82
2021/04/09 02:50:44;;;;;;;24.98;10.55;;;5.30;99.90;;;;;;5070655;28;20192;-82
2021/04/09 02:53:24;;;;;;;19.05;10.02;;;5.40;99.90;;;;;;5050156;28;20151;-82
2021/04/09 02:55:52;;;;;;;20.10;10.93;;;5.30;99.90;;;;;;5054382;28;20049;-82
2021/04/09 02:58:19;;;;;;;17.98;10.25;;;5.30;99.90;;;;;;5045580;28;20098;-82
2021/04/09 03:00:49;;;;;;;16.58;9.68;;;5.30;99.90;;;;;;5068769;28;20115;-83
2021/04/09 03:03:16;;;;;;;16.08;9.82;;;5.40;99.90;;;;;;5070636;28;20484;-82
2021/04/09 03:05:44;;;;;;;23.10;10.23;;;5.30;99.90;;;;;;5054168;28;20032;-83
2021/04/09 03:08:12;;;;;;;20.25;9.90;;;5.30;99.90;;;;;;5048116;28;20416;-82
2021/04/09 03:10:39;;;;;;;16.33;10.77;;;5.30;99.90;;;;;;5070775;28;20045;-82
2021/04/09 03:13:04;;;;;;;25.08;10.65;;;5.30;99.90;;;;;;5070682;28;20047;-83
2021/04/09 03:15:54;;;;;;;20.65;10.75;;;5.30;99.90;;;;;;5071569;28;20054;-82
2021/04/09 03:18:21;;;;;;;16.60;10.05;;;5.30;99.90;;;;;;5052941;28;20044;-84
2021/04/09 03:20:47;;;;;;;17.45;10.23;;;5.20;99.90;;;;;;5071353;28;20090;-83
2021/04/09 03:23:13;;;;;;;19.23;10.05;;;5.30;99.90;;;;;;5052116;28;20507;-83
2021/04/09 03:25:38;;;;;;;18.25;10.35;;;5.30;99.90;;;;;;5053415;28;20473;-83
2021/04/09 03:28:05;;;;;;;15.35;10.23;;;5.20;99.90;;;;;;5052466;28;20090;-83
2021/04/09 03:30:31;;;;;;;20.00;10.82;;;5.20;99.90;;;;;;5033626;28;20047;-82
2021/04/09 03:32:57;;;;;;;16.67;10.38;;;5.20;99.90;;;;;;5036468;28;20115;-84
2021/04/09 03:35:23;;;;;;;22.52;12.07;;;5.20;99.90;;;;;;5070940;28;20036;-82
2021/04/09 03:37:49;;;;;;;16.48;10.88;;;5.20;99.90;;;;;;5065977;28;20029;-82
2021/04/09 03:40:16;;;;;;;18.67;10.60;;;5.20;99.90;;;;;;5052276;28;20063;-82
2021/04/09 03:42:44;;;;;;;21.20;10.57;;;5.20;99.90;;;;;;5053613;28;20044;-82
2021/04/09 03:45:10;;;;;;;21.40;10.73;;;5.20;99.90;;;;;;5031654;28;20048;-81
2021/04/09 03:47:37;;;;;;;23.23;11.98;;;5.20;99.90;;;;;;5061394;28;20110;-82
2021/04/09 03:50:05;;;;;;;17.75;10.07;;;5.10;99.90;;;;;;5050003;28;20037;-82
2021/04/09 03:52:31;;;;;;;21.02;10.85;;;5.10;99.90;;;;;;5070888;28;20078;-82
2021/04/09 03:54:56;;;;;;;20.20;10.60;;;5.20;99.90;;;;;;5018427;28;20536;-82
2021/04/09 03:57:23;;;;;;;17.45;10.13;;;5.20;99.90;;;;;;5032250;28;20116;-82
2021/04/09 03:59:48;;;;;;;21.30;10.95;;;5.10;99.90;;;;;;5050110;28;20119;-82
2021/04/09 04:02:14;;;;;;;17.92;11.52;;;5.10;99.90;;;;;;5052019;28;20036;-82
2021/04/09 04:04:41;;;;;;;26.02;10.90;;;5.10;99.90;;;;;;5052819;28;20072;-82
2021/04/09 04:07:07;;;;;;;17.15;10.68;;;5.00;99.90;;;;;;5069345;28;20043;-82
2021/04/09 04:09:33;;;;;;;19.35;10.82;;;5.10;99.90;;;;;;5051303;28;20475;-82
2021/04/09 04:11:59;;;;;;;17.60;10.48;;;5.10;99.90;;;;;;5052747;28;20510;-83
2021/04/09 04:14:25;;;;;;;19.13;11.20;;;5.10;99.90;;;;;;5051065;28;20443;-82
2021/04/09 04:16:51;;;;;;;24.50;12.05;;;5.10;99.90;;;;;;5044357;28;20477;-82
2021/04/09 04:19:17;;;;;;;19.33;10.77;;;5.20;99.90;;;;;;5030508;28;20040;-82
2021/04/09 04:21:44;;;;;;;16.05;11.18;;;5.10;99.90;;;;;;5070374;28;20041;-82
2021/04/09 04:24:10;;;;;;;22.58;11.23;;;5.20;99.90;;;;;;5032343;28;20064;-82
2021/04/09 04:26:36;;;;;;;20.83;11.95;;;5.10;99.90;;;;;;5069997;28;20071;-83
2021/04/09 04:29:03;;;;;;;21.02;11.43;;;5.10;99.90;;;;;;5051484;28;20484;-85
2021/04/09 04:31:29;;;;;;;18.67;10.88;;;5.10;99.90;;;;;;5051969;28;20127;-82
2021/04/09 04:33:55;;;;;;;18.67;12.15;;;5.10;99.90;;;;;;5035757;28;20123;-82
2021/04/09 04:36:21;;;;;;;32.30;13.55;;;5.10;99.90;;;;;;5051214;28;20045;-83
2021/04/09 04:38:48;;;;;;;22.25;13.00;;;5.20;99.90;;;;;;5034806;28;20044;-82
2021/04/09 04:41:19;;;;;;;22.00;11.85;;;5.10;99.90;;;;;;5050022;28;20129;-82
2021/04/09 04:43:44;;;;;;;;;;;5.20;99.90;;;;;;5070198;28;20064;-82
2021/04/09 04:46:11;;;;;;;25.83;12.82;;;5.20;99.90;;;;;;5034201;28;19997;-82
2021/04/09 04:48:37;;;;;;;22.33;12.50;;;5.20;99.90;;;;;;5066190;28;20048;-83
2021/04/09 04:51:03;;;;;;;22.98;12.18;;;5.20;99.90;;;;;;5045773;28;20051;-84
2021/04/09 04:53:29;;;;;;;26.33;12.18;;;5.20;99.90;;;;;;5068073;28;20040;-83
2021/04/09 04:55:55;;;;;;;28.42;12.98;;;5.20;99.90;;;;;;5043820;28;20451;-83
2021/04/09 04:58:21;;;;;;;23.23;12.48;;;5.20;99.90;;;;;;5068332;28;20040;-83
2021/04/09 05:00:47;;;;;;;23.63;12.70;;;5.20;99.90;;;;;;5018352;28;20033;-83
2021/04/09 05:03:13;;;;;;;20.50;13.02;;;5.20;99.90;;;;;;5034006;28;20044;-84
2021/04/09 05:05:39;;;;;;;24.33;12.77;;;5.30;99.90;;;;;;5069582;28;20633;-83
2021/04/09 05:08:05;;;;;;;21.70;12.52;;;5.30;99.90;;;;;;5069010;28;20037;-84
2021/04/09 05:10:31;;;;;;;22.70;13.32;;;5.30;99.90;;;;;;5030542;28;20047;-82
2021/04/09 05:12:57;;;;;;;17.15;11.85;;;5.30;99.90;;;;;;5069304;28;20048;-82
2021/04/09 05:15:23;;;;;;;23.38;12.52;;;5.30;99.90;;;;;;5050745;28;20040;-82
2021/04/09 05:17:48;;;;;;;23.13;12.50;;;5.30;99.90;;;;;;5051362;28;20063;-83
2021/04/09 05:20:15;;;;;;;27.67;13.75;;;5.40;99.90;;;;;;5068097;28;20043;-82
2021/04/09 05:22:40;;;;;;;28.60;12.95;;;5.40;99.90;;;;;;5043550;28;20044;-83
2021/04/09 05:25:07;;;;;;;20.73;13.30;;;5.40;99.90;;;;;;5050969;28;20396;-85
2021/04/09 05:27:33;;;;;;;24.15;13.50;;;5.40;99.90;;;;;;5051177;28;20047;-83
2021/04/09 05:29:59;;;;;;;24.20;13.05;;;5.40;99.90;;;;;;5031179;28;20036;-82
2021/04/09 05:32:25;;;;;;;22.80;12.63;;;5.30;99.90;;;;;;5034004;28;20131;-82
2021/04/09 05:34:51;;;;;;;27.48;13.18;;;5.30;99.90;;;;;;5050876;28;20115;-82
2021/04/09 05:37:17;;;;;;;22.77;13.25;;;5.20;99.90;;;;;;5059159;28;20044;-82
2021/04/09 05:39:42;;;;;;;21.08;12.88;;;5.30;99.90;;;;;;5047388;28;20048;-83
2021/04/09 05:42:11;;;;;;;24.63;12.40;;;5.30;99.90;;;;;;5050862;28;20050;-84
2021/04/09 05:44:37;;;;;;;22.92;13.55;;;5.30;99.90;;;;;;5051661;28;20045;-82
2021/04/09 05:47:04;;;;;;;23.20;13.23;;;5.20;99.90;;;;;;5034008;28;20128;-82
2021/04/09 05:49:31;;;;;;;25.80;12.57;;;5.30;99.90;;;;;;5042333;28;20045;-83
2021/04/09 05:51:58;;;;;;;27.17;13.77;;;5.30;99.90;;;;;;5050720;28;20045;-83
2021/04/09 05:54:23;;;;;;;23.88;12.20;;;5.40;99.90;;;;;;5050002;28;20334;-83
2021/04/09 05:56:49;;;;;;;21.85;13.52;;;5.40;99.90;;;;;;5030972;28;20545;-84
2021/04/09 05:59:15;;;;;;;24.85;11.90;;;5.40;99.90;;;;;;5047895;28;20258;-83
2021/04/09 06:01:41;;;;;;;27.25;11.88;;;5.40;99.90;;;;;;5068780;28;20056;-83
2021/04/09 06:04:07;;;;;;;28.80;12.98;;;5.50;99.90;;;;;;5046257;28;20040;-85
2021/04/09 06:06:33;;;;;;;22.10;11.95;;;5.50;99.90;;;;;;5068290;28;20056;-83
2021/04/09 06:08:59;;;;;;;21.27;11.98;;;5.70;99.90;;;;;;5068136;28;20257;-83
2021/04/09 06:11:25;;;;;;;18.48;12.35;;;5.80;99.90;;;;;;5049941;28;20040;-82
2021/04/09 06:13:52;;;;;;;22.60;12.50;;;5.80;99.90;;;;;;5050663;28;20036;-82
2021/04/09 06:16:20;;;;;;;18.85;11.77;;;5.90;99.90;;;;;;5068009;28;20484;-82
2021/04/09 06:18:46;;;;;;;25.58;10.98;;;5.90;99.90;;;;;;5014443;28;20060;-83
2021/04/09 06:21:11;;;;;;;17.95;10.98;;;6.00;99.90;;;;;;5050058;28;20032;-86
2021/04/09 06:23:37;;;;;;;23.92;12.15;;;6.00;99.90;;;;;;5054045;28;20094;-82
2021/04/09 06:26:03;;;;;;;16.23;10.35;;;6.10;99.90;;;;;;5037963;28;20052;-83
2021/04/09 06:28:29;;;;;;;24.52;10.70;;;6.20;99.90;;;;;;5053187;28;20051;-83
2021/04/09 06:30:54;;;;;;;29.05;10.75;;;6.20;99.90;;;;;;5067644;28;20450;-82
2021/04/09 06:33:20;;;;;;;16.60;10.70;;;6.40;99.90;;;;;;5033985;28;20041;-84
2021/04/09 06:35:46;;;;;;;25.40;10.68;;;6.30;99.90;;;;;;5046346;28;20066;-83
2021/04/09 06:38:12;;;;;;;22.45;10.73;;;6.40;99.90;;;;;;5053613;28;20046;-85
2021/04/09 06:40:40;;;;;;;16.77;10.32;;;6.50;99.90;;;;;;5071031;28;20098;-82
2021/04/09 06:43:06;;;;;;;16.83;9.93;;;6.50;99.90;;;;;;5037443;28;20045;-82
2021/04/09 06:45:32;;;;;;;22.55;10.02;;;6.60;99.90;;;;;;5069081;28;20055;-84
2021/04/09 06:47:58;;;;;;;18.10;9.80;;;6.60;99.90;;;;;;5053430;28;20068;-83
2021/04/09 06:50:24;;;;;;;24.42;10.50;;;6.70;99.90;;;;;;5053339;28;20069;-84
2021/04/09 06:52:54;;;;;;;18.35;8.23;;;6.70;99.90;;;;;;5071798;28;20076;-83
2021/04/09 06:55:23;;;;;;;15.93;9.63;;;6.80;99.90;;;;;;5070418;28;20083;-83
2021/04/09 06:57:50;;;;;;;19.90;9.27;;;6.80;99.90;;;;;;5036537;28;20499;-84
2021/04/09 07:00:17;;;;;;;22.10;10.13;;;6.90;99.90;;;;;;5033897;28;20048;-85
2021/04/09 07:02:44;;;;;;;24.83;11.48;;;6.90;99.90;;;;;;5070500;28;20043;-81
2021/04/09 07:05:14;;;;;;;22.02;8.25;;;7.00;99.90;;;;;;5069716;28;20040;-83
2021/04/09 07:07:40;;;;;;;19.92;8.85;;;7.00;99.90;;;;;;5053776;28;20045;-83
2021/04/09 07:10:07;;;;;;;24.17;9.63;;;7.10;99.90;;;;;;5070166;28;20056;-83
2021/04/09 07:12:34;;;;;;;20.58;9.80;;;7.20;99.90;;;;;;5052795;28;20114;-83
2021/04/09 07:15:06;;;;;;;20.92;9.43;;;7.20;99.90;;;;;;5050367;28;20054;-83
2021/04/09 07:17:38;;;;;;;18.20;8.77;;;7.30;99.90;;;;;;5049001;28;20045;-83
2021/04/09 07:20:08;;;;;;;18.02;9.50;;;7.30;99.90;;;;;;5035383;28;20040;-83
2021/04/09 07:22:34;;;;;;;17.88;8.68;;;7.40;99.90;;;;;;5070254;28;20043;-82
2021/04/09 07:25:15;;;;;;;20.98;8.70;;;7.40;99.90;;;;;;5049517;28;20052;-84
2021/04/09 07:27:43;;;;;;;20.65;9.70;;;7.50;99.90;;;;;;5070647;28;20036;-83
2021/04/09 07:30:10;;;;;;;15.93;8.45;;;7.60;99.90;;;;;;5036003;28;20051;-83
2021/04/09 07:32:37;;;;;;;20.60;8.45;;;7.70;99.90;;;;;;5049699;28;20111;-83
2021/04/09 07:35:05;;;;;;;19.98;9.50;;;7.70;99.90;;;;;;5069401;28;20036;-83
2021/04/09 07:37:56;;;;;;;21.40;8.38;;;7.70;99.90;;;;;;5068346;28;20072;-83
2021/04/09 07:40:29;;;;;;;23.92;7.93;;;7.80;99.90;;;;;;5069376;28;20104;-83
2021/04/09 07:42:56;;;;;;;29.02;8.10;;;7.90;99.90;;;;;;5070266;28;20068;-83
2021/04/09 07:45:23;;;;;;;17.27;7.72;;;8.00;99.90;;;;;;5069151;28;20056;-82
2021/04/09 07:48:11;;;;;;;18.60;8.20;;;8.00;99.90;;;;;;5070997;28;20036;-83
2021/04/09 07:50:43;;;;;;;16.63;7.85;;;8.10;99.90;;;;;;5051432;28;20033;-83
2021/04/09 07:53:13;;;;;;;20.73;8.30;;;8.10;99.90;;;;;;5051387;28;20052;-83
2021/04/09 07:55:39;;;;;;;23.00;8.10;;;8.10;99.90;;;;;;5069479;28;20051;-83
2021/04/09 07:58:25;;;;;;;19.42;7.35;;;8.10;99.90;;;;;;5070068;28;20041;-83
2021/04/09 08:00:52;;;;;;;19.52;7.68;;;8.10;99.90;;;;;;5067518;28;20037;-83
2021/04/09 08:03:31;;;;;;;15.73;7.32;;;8.10;99.90;;;;;;5049434;28;20143;-84
2021/04/09 08:06:18;;;;;;;16.88;7.55;;;8.20;99.90;;;;;;5070328;28;20044;-82
2021/04/09 08:08:47;;;;;;;23.15;8.43;;;8.20;99.90;;;;;;5030921;28;20045;-83
2021/04/09 08:11:18;;;;;;;19.75;7.30;;;8.30;99.90;;;;;;5046859;28;20090;-83
2021/04/09 08:13:55;;;;;;;15.50;7.15;;;8.30;99.90;;;;;;5070311;28;20500;-83
2021/04/09 08:16:49;;;;;;;29.92;7.72;;;8.30;99.90;;;;;;5055640;28;20127;-83
2021/04/09 08:19:24;;;;;;;16.13;7.15;;;8.30;99.90;;;;;;5067831;28;20058;-82
2021/04/09 08:21:59;;;;;;;25.48;7.28;;;8.40;99.90;;;;;;5044644;28;20036;-82
2021/04/09 08:24:29;;;;;;;25.60;6.80;;;8.40;99.90;;;;;;5069177;28;20049;-83
2021/04/09 08:26:55;;;;;;;19.63;7.35;;;8.40;99.90;;;;;;5052209;28;20098;-82
2021/04/09 08:29:22;;;;;;;24.55;7.53;;;8.50;99.90;;;;;;5032827;28;20036;-83
2021/04/09 08:31:48;;;;;;;22.50;7.28;;;8.50;99.90;;;;;;5047183;28;20052;-83
2021/04/09 08:34:22;;;;;;;21.08;7.43;;;8.50;99.90;;;;;;5051835;28;20114;-83
2021/04/09 08:36:49;;;;;;;19.38;7.13;;;8.60;99.90;;;;;;5069569;28;20055;-82
2021/04/09 08:39:17;;;;;;;19.85;6.68;;;8.60;99.90;;;;;;5032369;28;20052;-82
2021/04/09 08:41:45;;;;;;;15.35;6.22;;;8.70;99.90;;;;;;5069599;28;20860;-82
2021/04/09 08:44:12;;;;;;;24.95;7.53;;;8.70;99.90;;;;;;5070773;28;20481;-82
2021/04/09 08:46:39;;;;;;;19.15;6.55;;;8.60;99.90;;;;;;5039789;28;20048;-83
2021/04/09 08:49:07;;;;;;;15.00;6.25;;;8.70;99.90;;;;;;5069922;28;20037;-83
2021/04/09 08:51:35;;;;;;;15.82;6.45;;;8.60;99.90;;;;;;5068416;28;20133;-83
2021/04/09 08:54:21;;;;;;;19.35;6.15;;;8.70;99.90;;;;;;5051534;28;20046;-82
2021/04/09 08:56:51;;;;;;;15.35;5.32;;;8.70;99.90;;;;;;5068937;28;20068;-83
2021/04/09 08:59:39;;;;;;;17.05;5.80;;;8.80;99.90;;;;;;5063400;28;20041;-83
2021/04/09 09:02:16;;;;;;;22.65;6.90;;;8.90;99.90;;;;;;5030739;28;20037;-83
2021/04/09 09:05:05;;;;;;;17.80;5.57;;;9.00;99.90;;;;;;5059667;28;20048;-83
2021/04/09 09:07:43;;;;;;;14.82;5.63;;;9.10;99.90;;;;;;5064547;28;20040;-83
2021/04/09 09:10:30;;;;;;;17.73;5.25;;;9.20;99.90;;;;;;5033029;28;20139;-83
2021/04/09 09:13:05;;;;;;;13.13;5.68;;;9.20;99.90;;;;;;5046605;28;20041;-83
2021/04/09 09:15:46;;;;;;;22.73;5.85;;;9.20;99.90;;;;;;5047287;28;20124;-83
2021/04/09 09:18:24;;;;;;;18.00;5.38;;;9.30;99.90;;;;;;5043139;28;20447;-83
2021/04/09 09:21:11;;;;;;;12.85;5.30;;;9.30;99.90;;;;;;5046549;28;20497;-83
2021/04/09 09:23:48;;;;;;;22.60;5.50;;;9.30;99.90;;;;;;5049906;28;20451;-83
2021/04/09 09:26:47;;;;;;;16.10;5.78;;;9.30;99.90;;;;;;5068541;28;20040;-83
2021/04/09 09:29:16;;;;;;;18.58;4.65;;;9.20;99.90;;;;;;5067984;28;20048;-83
2021/04/09 09:31:56;;;;;;;18.55;4.38;;;9.20;99.90;;;;;;5065974;28;20040;-83
2021/04/09 09:34:23;;;;;;;20.17;5.22;;;9.20;99.90;;;;;;5050262;28;20036;-83
2021/04/09 09:36:59;;;;;;;18.15;4.38;;;9.20;99.90;;;;;;5067603;28;20072;-83
2021/04/09 09:40:05;;;;;;;20.55;5.00;;;9.30;99.90;;;;;;5050045;28;20072;-83
2021/04/09 09:42:34;;;;;;;14.68;5.25;;;9.30;99.90;;;;;;5018531;28;20049;-82
2021/04/09 09:45:08;;;;;;;12.52;6.13;;;9.30;99.90;;;;;;5067757;28;20044;-83
2021/04/09 09:47:46;;;;;;;14.68;4.63;;;9.30;99.90;;;;;;5068064;28;20446;-83
2021/04/09 09:50:22;;;;;;;19.73;5.18;;;9.20;99.90;;;;;;5051081;28;20063;-83
2021/04/09 09:53:06;;;;;;;22.92;4.60;;;9.20;99.90;;;;;;5068111;28;20079;-83
2021/04/09 09:55:37;;;;;;;13.65;4.45;;;9.10;99.90;;;;;;5065852;28;20036;-83
2021/04/09 09:58:24;;;;;;;16.13;4.43;;;8.90;99.90;;;;;;5072340;28;20419;-82
2021/04/09 10:00:58;;;;;;;15.68;4.57;;;8.80;99.90;;;;;;5048442;28;20237;-83
2021/04/09 10:03:32;;;;;;;14.73;4.25;;;8.80;99.90;;;;;;5070328;28;20055;-83
2021/04/09 10:05:57;;;;;;;17.27;5.15;;;8.80;99.90;;;;;;5068214;28;20037;-82
2021/04/09 10:08:25;;;;;;;12.63;3.90;;;8.70;99.90;;;;;;5072360;28;20656;-82
2021/04/09 10:11:02;;;;;;;13.48;3.40;;;8.70;99.90;;;;;;5053609;28;20463;-83
2021/04/09 10:13:32;;;;;;;12.00;4.13;;;8.70;99.90;;;;;;5048106;28;20056;-83
2021/04/09 10:16:17;;;;;;;13.30;3.78;;;8.70;99.90;;;;;;5072550;28;20039;-83
2021/04/09 10:18:52;;;;;;;14.40;3.40;;;8.90;99.90;;;;;;5054228;28;20121;-82
2021/04/09 10:21:27;;;;;;;17.05;3.78;;;9.10;99.90;;;;;;5070190;28;20045;-83
2021/04/09 10:24:07;;;;;;;15.63;4.00;;;9.20;99.90;;;;;;5037400;28;20492;-83
2021/04/09 10:26:34;;;;;;;20.65;4.38;;;9.40;99.90;;;;;;5064124;28;20072;-83
2021/04/09 10:29:00;;;;;;;19.98;4.38;;;9.60;99.90;;;;;;5042657;28;20148;-83
2021/04/09 10:31:26;;;;;;;11.82;4.05;;;9.70;99.90;;;;;;5035515;28;20437;-83
2021/04/09 10:33:56;;;;;;;16.70;4.05;;;9.70;99.90;;;;;;5053241;28;20907;-82
2021/04/09 10:36:24;;;;;;;15.45;4.38;;;9.80;99.90;;;;;;5053796;28;20106;-83
2021/04/09 10:38:54;;;;;;;14.88;3.60;;;9.90;99.90;;;;;;5069997;28;20049;-83
2021/04/09 10:41:26;;;;;;;10.82;3.75;;;9.90;99.90;;;;;;5070656;28;20875;-84
2021/04/09 10:43:59;;;;;;;12.32;3.70;;;9.80;99.90;;;;;;5070804;28;20705;-84
2021/04/09 10:46:27;;;;;;;19.75;4.50;;;9.60;99.90;;;;;;5071603;28;20056;-84
2021/04/09 10:49:11;;;;;;;15.32;3.78;;;9.60;99.90;;;;;;5050513;28;20161;-84
2021/04/09 10:51:50;;;;;;;22.73;4.38;;;9.60;99.90;;;;;;5052081;28;20047;-84
2021/04/09 10:54:21;;;;;;;14.98;3.75;;;9.60;99.90;;;;;;5053735;28;20041;-84
2021/04/09 10:56:55;;;;;;;17.13;4.03;;;9.50;99.90;;;;;;5070027;28;20042;-84
2021/04/09 10:59:35;;;;;;;14.55;4.50;;;9.60;99.90;;;;;;5071833;28;20041;-84
2021/04/09 11:02:06;;;;;;;13.23;4.40;;;9.60;99.90;;;;;;5071213;28;20036;-84
2021/04/09 11:04:34;;;;;;;13.65;4.10;;;9.90;99.90;;;;;;5070898;28;20041;-84
2021/04/09 11:07:02;;;;;;;15.18;3.50;;;10.10;99.90;;;;;;5021041;28;20829;-84
2021/04/09 11:09:48;;;;;;;13.73;3.90;;;10.30;99.90;;;;;;5047247;28;20047;-84
2021/04/09 11:12:21;;;;;;;13.77;3.75;;;10.40;99.90;;;;;;5068862;28;20060;-84
2021/04/09 11:15:06;;;;;;;11.80;3.63;;;10.40;99.90;;;;;;5052162;28;20041;-84
2021/04/09 11:17:32;;;;;;;16.08;3.58;;;10.20;99.90;;;;;;5070644;28;20055;-85
2021/04/09 11:19:59;;;;;;;9.40;3.20;;;10.00;99.90;;;;;;5070678;28;20041;-84
2021/04/09 11:22:27;;;;;;;12.00;3.70;;;9.80;99.90;;;;;;5047440;28;20048;-84
2021/04/09 11:25:02;;;;;;;10.93;3.45;;;9.60;99.90;;;;;;5052395;28;20040;-84
2021/04/09 11:27:31;;;;;;;10.57;3.65;;;9.50;99.90;;;;;;5071185;28;20211;-83
2021/04/09 11:30:07;;;;;;;17.40;4.95;;;9.50;99.90;;;;;;5049744;28;20531;-85
2021/04/09 11:32:41;;;;;;;7.63;3.15;;;9.40;99.90;;;;;;5069702;28;20041;-85
2021/04/09 11:35:11;;;;;;;16.08;4.43;;;9.40;99.90;;;;;;5042730;28;20044;-84
2021/04/09 11:37:45;;;;;;;14.80;3.95;;;9.50;99.90;;;;;;5035398;28;20037;-84
2021/04/09 11:40:16;;;;;;;12.32;3.00;;;9.60;99.90;;;;;;5043185;28;20033;-84
2021/04/09 11:42:42;;;;;;;12.80;3.83;;;9.60;99.90;;;;;;5069893;28;20186;-84
2021/04/09 11:45:14;;;;;;;12.88;3.45;;;9.60;99.90;;;;;;5052545;28;20051;-85
2021/04/09 11:47:44;;;;;;;12.20;3.47;;;9.70;99.90;;;;;;5052056;28;20048;-84
2021/04/09 11:50:23;;;;;;;11.77;3.05;;;9.60;99.90;;;;;;5070344;28;20051;-85
2021/04/09 11:52:49;;;;;;;12.50;3.33;;;9.50;99.90;;;;;;5052052;28;20048;-85
2021/04/09 11:55:16;;;;;;;13.23;4.25;;;9.50;99.90;;;;;;5049954;28;20040;-84
2021/04/09 11:57:42;;;;;;;9.95;3.45;;;9.50;99.90;;;;;;5052062;28;20422;-84
2021/04/09 12:00:18;;;;;;;15.20;3.70;;;9.40;99.90;;;;;;5030169;28;20070;-85
2021/04/09 12:02:57;;;;;;;23.25;5.47;;;9.40;99.90;;;;;;5069220;28;20036;-85
2021/04/09 12:05:25;;;;;;;12.77;3.27;;;9.30;99.90;;;;;;5067819;28;20043;-85
2021/04/09 12:07:51;;;;;;;18.42;5.00;;;9.30;99.90;;;;;;5069820;28;20297;-84
2021/04/09 12:10:17;;;;;;;12.60;3.47;;;9.30;99.90;;;;;;5052196;28;20049;-84
2021/04/09 12:12:44;;;;;;;13.75;3.72;;;9.30;99.90;;;;;;5051805;28;20037;-84
2021/04/09 12:15:11;;;;;;;12.15;3.70;;;9.20;99.90;;;;;;5070524;28;20048;-84
2021/04/09 12:17:38;;;;;;;19.27;4.57;;;9.20;99.90;;;;;;5052146;28;20049;-85
2021/04/09 12:20:11;;;;;;;19.50;4.78;;;9.10;99.90;;;;;;5066981;28;20557;-84
2021/04/09 12:22:37;;;;;;;18.67;3.95;;;9.10;99.90;;;;;;5051576;28;20094;-85
2021/04/09 12:25:03;;;;;;;10.23;3.03;;;9.10;99.90;;;;;;5034517;28;20098;-86
2021/04/09 12:27:29;;;;;;;16.45;4.50;;;9.00;99.90;;;;;;5034411;28;20047;-84
2021/04/09 12:29:55;;;;;;;13.63;4.20;;;8.90;99.90;;;;;;5044720;28;20036;-84
2021/04/09 12:32:21;;;;;;;7.88;3.22;;;8.80;99.90;;;;;;5067885;28;20067;-84
2021/04/09 12:34:47;;;;;;;14.13;3.33;;;8.70;99.90;;;;;;5049694;28;20461;-83
2021/04/09 12:37:13;;;;;;;11.38;2.70;;;8.10;99.90;;;;;;5050867;28;20037;-84
2021/04/09 12:39:39;;;;;;;15.45;3.75;;;7.50;99.90;;;;;;5050392;28;20075;-85
2021/04/09 12:42:07;;;;;;;39.75;6.72;;;7.10;99.90;;;;;;5069706;28;20111;-84
2021/04/09 12:44:33;;;;;;;23.55;7.43;;;7.00;99.90;;;;;;5051525;28;20117;-84
2021/04/09 12:46:59;;;;;;;19.50;5.07;;;7.00;99.90;;;;;;5068735;28;20132;-84
2021/04/09 12:49:25;;;;;;;24.63;4.72;;;6.90;99.90;;;;;;5034710;28;20064;-84
2021/04/09 12:51:51;;;;;;;10.40;2.13;;;6.90;99.90;;;;;;5050107;28;20456;-84
2021/04/09 12:54:17;;;;;;;21.80;3.20;;;6.80;99.90;;;;;;5034826;28;20048;-85
2021/04/09 12:56:43;;;;;;;18.55;4.32;;;6.70;99.90;;;;;;5068804;28;20054;-86